Time;durP1;ratioP1;P1;durP2;ratioP2;P2;SDS_P1;SDS_P2;PMS_P1;PMS_P2;Temp;Humidity;BMP_temperature;BMP_pressure;BME280_temperature;BME280_humidity;BME280_pressure;Samples;Min_cycle;Max_cycle;Signal;HPM_P1;HPM_P2
2023/07/26 00:00:52;;;;;;;9.90;8.60;;;12.90;99.90;;;;;;5039675;28;20785;-57
2023/07/26 00:03:18;;;;;;;13.60;7.90;;;12.90;99.90;;;;;;5036868;28;20171;-56
2023/07/26 00:05:43;;;;;;;12.30;7.77;;;12.90;99.90;;;;;;5039478;28;20438;-57
2023/07/26 00:08:09;;;;;;;12.00;7.50;;;12.90;99.90;;;;;;5037059;28;20207;-57
2023/07/26 00:10:35;;;;;;;13.30;7.93;;;12.90;99.90;;;;;;5047124;28;20648;-57
2023/07/26 00:13:00;;;;;;;14.70;9.07;;;12.80;99.90;;;;;;5037809;28;20237;-56
2023/07/26 00:15:26;;;;;;;11.53;8.60;;;12.80;99.90;;;;;;5033334;28;20212;-57
2023/07/26 00:17:51;;;;;;;11.30;8.10;;;12.80;99.90;;;;;;5036431;28;20175;-57
2023/07/26 00:20:17;;;;;;;16.57;8.40;;;12.90;99.90;;;;;;5046612;28;20203;-56
2023/07/26 00:22:42;;;;;;;16.63;8.90;;;12.80;99.90;;;;;;5033167;28;20172;-58
2023/07/26 00:25:08;;;;;;;12.77;8.17;;;12.80;99.90;;;;;;5039274;28;20184;-56
2023/07/26 00:27:34;;;;;;;13.57;8.53;;;12.80;99.90;;;;;;5047163;28;20175;-56
2023/07/26 00:30:00;;;;;;;17.43;9.43;;;12.80;99.90;;;;;;5042908;28;20210;-56
2023/07/26 00:32:25;;;;;;;16.00;8.80;;;12.80;99.90;;;;;;5043217;28;20195;-57
2023/07/26 00:34:51;;;;;;;12.40;8.57;;;12.80;99.90;;;;;;5043792;28;20204;-57
2023/07/26 00:37:16;;;;;;;16.27;9.17;;;12.80;99.90;;;;;;5037014;28;20183;-57
2023/07/26 00:39:43;;;;;;;15.40;8.57;;;12.80;99.90;;;;;;5040714;28;20226;-57
2023/07/26 00:42:09;;;;;;;13.07;8.23;;;12.80;99.90;;;;;;5042320;28;20666;-59
2023/07/26 00:44:34;;;;;;;14.30;8.57;;;12.80;99.90;;;;;;5044769;28;20425;-57
2023/07/26 00:47:00;;;;;;;12.60;7.90;;;12.90;99.90;;;;;;5036920;28;20758;-56
2023/07/26 00:49:26;;;;;;;14.70;7.67;;;12.80;99.90;;;;;;5044704;28;20194;-58
2023/07/26 00:51:52;;;;;;;10.87;7.97;;;12.80;99.90;;;;;;5038197;28;20188;-57
2023/07/26 00:54:21;;;;;;;10.40;8.20;;;12.80;99.90;;;;;;5046445;28;20485;-58
2023/07/26 00:56:46;;;;;;;9.70;7.70;;;12.80;99.90;;;;;;5036848;28;20931;-57
2023/07/26 00:59:12;;;;;;;16.73;8.13;;;12.80;99.90;;;;;;5037279;28;20488;-58
2023/07/26 01:01:39;;;;;;;10.57;7.67;;;12.80;99.90;;;;;;5033981;28;20192;-58
2023/07/26 01:04:05;;;;;;;12.17;7.93;;;12.80;99.90;;;;;;5032914;28;20264;-56
2023/07/26 01:06:48;;;;;;;16.47;8.50;;;12.80;99.90;;;;;;5042753;28;21206;-57
2023/07/26 01:09:38;;;;;;;17.33;8.67;;;12.80;99.90;;;;;;5034735;28;21050;-57
2023/07/26 01:12:09;;;;;;;9.00;7.10;;;12.80;99.90;;;;;;5033949;28;20480;-58
2023/07/26 01:14:55;;;;;;;11.87;7.10;;;12.80;99.90;;;;;;5042470;28;20881;-58
2023/07/26 01:17:21;;;;;;;13.50;7.90;;;12.70;99.90;;;;;;5044876;28;20496;-58
2023/07/26 01:19:46;;;;;;;10.40;7.33;;;12.70;99.90;;;;;;5031454;28;20454;-57
2023/07/26 01:22:12;;;;;;;9.67;7.30;;;12.70;99.90;;;;;;5039339;28;20549;-58
2023/07/26 01:24:37;;;;;;;8.57;7.33;;;12.70;99.90;;;;;;5038265;28;20703;-58
2023/07/26 01:27:03;;;;;;;14.73;7.47;;;12.70;99.90;;;;;;5044801;28;20179;-58
2023/07/26 01:29:29;;;;;;;10.77;7.17;;;12.70;99.90;;;;;;5041702;28;20199;-59
2023/07/26 01:31:55;;;;;;;11.20;7.50;;;12.70;99.90;;;;;;5034481;28;20187;-57
2023/07/26 01:34:20;;;;;;;12.53;8.03;;;12.70;99.90;;;;;;5041703;28;20245;-57
2023/07/26 01:36:47;;;;;;;9.40;6.73;;;12.70;99.90;;;;;;5029564;28;20877;-57
2023/07/26 01:39:15;;;;;;;15.27;7.40;;;12.70;99.90;;;;;;5026452;28;20218;-58
2023/07/26 01:41:40;;;;;;;10.60;7.30;;;12.70;99.90;;;;;;5043386;28;20422;-58
2023/07/26 01:44:06;;;;;;;9.73;6.83;;;12.70;99.90;;;;;;5036506;28;20493;-58
2023/07/26 01:46:32;;;;;;;10.60;7.03;;;12.70;99.90;;;;;;5043146;28;20201;-57
2023/07/26 01:48:57;;;;;;;13.10;7.50;;;12.60;99.90;;;;;;5035826;28;20568;-59
2023/07/26 01:51:23;;;;;;;10.03;7.23;;;12.60;99.90;;;;;;5040948;28;20692;-58
2023/07/26 01:53:49;;;;;;;7.60;6.03;;;12.60;99.90;;;;;;5031348;28;20207;-56
2023/07/26 01:56:14;;;;;;;9.77;6.60;;;12.60;99.90;;;;;;5041651;28;20172;-57
2023/07/26 01:58:40;;;;;;;10.30;6.30;;;12.60;99.90;;;;;;5034374;28;20293;-58
2023/07/26 02:01:06;;;;;;;6.40;5.07;;;12.60;99.90;;;;;;5027975;28;20681;-57
2023/07/26 02:03:31;;;;;;;9.63;5.57;;;12.60;99.90;;;;;;5033868;28;20176;-56
2023/07/26 02:05:57;;;;;;;7.70;5.70;;;12.60;99.90;;;;;;5031947;28;20195;-57
2023/07/26 02:08:23;;;;;;;6.07;5.33;;;12.50;99.90;;;;;;5036359;28;20263;-57
2023/07/26 02:10:48;;;;;;;6.63;5.97;;;12.60;99.90;;;;;;5042858;28;20525;-57
2023/07/26 02:13:14;;;;;;;5.60;5.00;;;12.50;99.90;;;;;;5041873;28;20691;-56
2023/07/26 02:15:40;;;;;;;6.30;5.37;;;12.50;99.90;;;;;;5035542;28;20204;-59
2023/07/26 02:18:06;;;;;;;8.83;5.73;;;12.50;99.90;;;;;;5034955;28;20191;-59
2023/07/26 02:20:32;;;;;;;6.17;5.27;;;12.50;99.90;;;;;;5041877;28;20476;-56
2023/07/26 02:22:58;;;;;;;10.10;5.43;;;12.50;99.90;;;;;;5040607;28;20516;-57
2023/07/26 02:25:24;;;;;;;8.30;5.60;;;12.50;99.90;;;;;;5044228;28;20567;-57
2023/07/26 02:27:50;;;;;;;7.50;5.30;;;12.50;99.90;;;;;;5035473;28;20187;-57
2023/07/26 02:30:16;;;;;;;7.50;5.03;;;12.50;99.90;;;;;;5036872;28;20640;-57
2023/07/26 02:32:41;;;;;;;10.40;6.10;;;12.50;99.90;;;;;;5039240;28;20580;-58
2023/07/26 02:35:07;;;;;;;9.77;6.13;;;12.50;99.90;;;;;;5041629;28;20204;-58
2023/07/26 02:37:33;;;;;;;17.20;6.57;;;12.50;99.90;;;;;;5037740;28;20176;-57
2023/07/26 02:39:58;;;;;;;9.83;7.00;;;12.50;99.90;;;;;;5034490;28;20603;-58
2023/07/26 02:42:25;;;;;;;14.53;6.00;;;12.50;99.90;;;;;;5043523;28;20717;-58
2023/07/26 02:44:53;;;;;;;7.87;6.10;;;12.50;99.90;;;;;;5034387;28;20176;-57
2023/07/26 02:47:18;;;;;;;11.00;5.70;;;12.50;99.90;;;;;;5038718;28;20453;-57
2023/07/26 02:49:44;;;;;;;6.43;5.30;;;12.40;99.90;;;;;;5030265;28;20535;-57
2023/07/26 02:52:09;;;;;;;7.70;5.93;;;12.40;99.90;;;;;;5036271;28;20183;-57
2023/07/26 02:54:35;;;;;;;8.77;5.83;;;12.40;99.90;;;;;;5030787;28;20207;-58
2023/07/26 02:57:00;;;;;;;8.90;6.40;;;12.40;99.90;;;;;;5040306;28;21008;-57
2023/07/26 02:59:26;;;;;;;6.23;5.23;;;12.30;99.90;;;;;;5035854;28;20221;-57
2023/07/26 03:01:51;;;;;;;9.23;6.17;;;12.30;99.90;;;;;;5030339;28;20663;-56
2023/07/26 03:04:18;;;;;;;6.03;5.37;;;12.30;99.90;;;;;;5036244;28;20178;-56
2023/07/26 03:06:43;;;;;;;6.70;5.20;;;12.30;99.90;;;;;;5037733;28;20184;-57
2023/07/26 03:09:09;;;;;;;8.20;5.77;;;12.30;99.90;;;;;;5038582;28;21073;-57
2023/07/26 03:11:36;;;;;;;7.90;6.03;;;12.30;99.90;;;;;;5035574;28;20182;-57
2023/07/26 03:14:01;;;;;;;10.80;5.70;;;12.30;99.90;;;;;;5034728;28;20211;-57
2023/07/26 03:16:27;;;;;;;7.97;5.60;;;12.30;99.90;;;;;;5034492;28;21200;-57
2023/07/26 03:18:53;;;;;;;6.67;5.30;;;12.40;99.90;;;;;;5039400;28;20203;-59
2023/07/26 03:21:18;;;;;;;7.47;5.90;;;12.40;99.90;;;;;;5033366;28;20175;-58
2023/07/26 03:23:44;;;;;;;7.17;5.43;;;12.40;99.90;;;;;;5035334;28;20183;-58
2023/07/26 03:26:09;;;;;;;9.70;6.40;;;12.40;99.90;;;;;;5035564;28;20742;-58
2023/07/26 03:28:35;;;;;;;11.53;5.57;;;12.40;99.90;;;;;;5028859;28;20213;-56
2023/07/26 03:31:01;;;;;;;6.37;5.50;;;12.40;99.90;;;;;;5036081;28;20180;-58
2023/07/26 03:33:26;;;;;;;5.70;5.17;;;12.40;99.90;;;;;;5029731;28;20230;-57
2023/07/26 03:35:52;;;;;;;8.07;5.70;;;12.40;99.90;;;;;;5037271;28;20233;-58
2023/07/26 03:38:18;;;;;;;8.03;5.97;;;12.40;99.90;;;;;;5040991;28;20214;-58
2023/07/26 03:40:44;;;;;;;7.87;5.87;;;12.40;99.90;;;;;;5037394;28;20417;-58
2023/07/26 03:43:10;;;;;;;7.60;5.80;;;12.40;99.90;;;;;;5031216;28;20626;-58
2023/07/26 03:45:36;;;;;;;6.83;5.27;;;12.40;99.90;;;;;;5027641;28;20430;-58
2023/07/26 03:48:02;;;;;;;9.10;5.93;;;12.30;99.90;;;;;;5030423;28;20186;-58
2023/07/26 03:50:28;;;;;;;8.57;6.13;;;12.30;99.90;;;;;;5034059;28;20430;-57
2023/07/26 03:52:54;;;;;;;8.20;6.03;;;12.30;99.90;;;;;;5036170;28;20444;-56
2023/07/26 03:55:20;;;;;;;11.30;6.20;;;12.30;99.90;;;;;;5024933;28;20454;-56
2023/07/26 03:57:45;;;;;;;8.60;5.90;;;12.30;99.90;;;;;;5035433;28;20286;-56
2023/07/26 04:00:11;;;;;;;7.43;5.30;;;12.30;99.90;;;;;;5032996;28;20196;-56
2023/07/26 04:02:37;;;;;;;6.70;5.60;;;12.30;99.90;;;;;;5037284;28;20167;-57
2023/07/26 04:05:03;;;;;;;8.40;5.70;;;12.30;99.90;;;;;;5031221;28;20520;-58
2023/07/26 04:07:28;;;;;;;8.63;5.40;;;12.30;99.90;;;;;;5033954;28;20191;-57
2023/07/26 04:09:54;;;;;;;8.33;6.07;;;12.30;99.90;;;;;;5030668;28;20206;-59
2023/07/26 04:12:19;;;;;;;8.53;6.47;;;12.30;99.90;;;;;;5024679;28;20613;-55
2023/07/26 04:14:46;;;;;;;7.67;5.63;;;12.30;99.90;;;;;;5032067;28;20203;-56
2023/07/26 04:17:12;;;;;;;8.57;5.83;;;12.30;99.90;;;;;;5031240;28;20627;-58
2023/07/26 04:19:37;;;;;;;7.40;5.17;;;12.30;99.90;;;;;;5027532;28;20445;-58
2023/07/26 04:22:03;;;;;;;7.43;6.30;;;12.30;99.90;;;;;;5024980;28;20237;-58
2023/07/26 04:24:28;;;;;;;7.90;6.00;;;12.30;99.90;;;;;;5023238;28;20195;-58
2023/07/26 04:26:54;;;;;;;6.53;5.93;;;12.20;99.90;;;;;;5025498;28;20187;-58
2023/07/26 04:29:20;;;;;;;11.27;6.50;;;12.20;99.90;;;;;;5033351;28;20199;-57
2023/07/26 04:31:45;;;;;;;11.30;6.83;;;12.30;99.90;;;;;;5036042;28;20294;-57
2023/07/26 04:34:12;;;;;;;10.77;6.13;;;12.20;99.90;;;;;;5019820;28;22559;-57
2023/07/26 04:36:38;;;;;;;7.27;5.93;;;12.20;99.90;;;;;;5028163;28;20766;-58
2023/07/26 04:39:04;;;;;;;7.30;5.77;;;12.20;99.90;;;;;;5025889;28;20568;-57
2023/07/26 04:41:29;;;;;;;10.33;5.43;;;12.20;99.90;;;;;;5020195;28;20835;-58
2023/07/26 04:43:55;;;;;;;6.57;5.83;;;12.20;99.90;;;;;;5027753;28;20171;-59
2023/07/26 04:46:21;;;;;;;8.00;5.30;;;12.30;99.90;;;;;;5024683;28;20761;-59
2023/07/26 04:48:46;;;;;;;7.80;5.30;;;12.20;99.90;;;;;;5032395;28;20199;-57
2023/07/26 04:51:13;;;;;;;15.10;5.90;;;12.20;99.90;;;;;;5042947;28;20176;-57
2023/07/26 04:53:38;;;;;;;8.90;5.80;;;12.30;99.90;;;;;;5036679;28;20763;-59
2023/07/26 04:56:04;;;;;;;7.37;5.17;;;12.30;99.90;;;;;;5036411;28;20549;-57
2023/07/26 04:58:30;;;;;;;9.23;5.67;;;12.30;99.90;;;;;;5037196;28;20195;-57
2023/07/26 05:00:55;;;;;;;6.73;6.03;;;12.30;99.90;;;;;;5041925;28;20587;-58
2023/07/26 05:03:21;;;;;;;7.90;6.07;;;12.30;99.90;;;;;;5039136;28;20252;-57
2023/07/26 05:05:50;;;;;;;7.60;5.87;;;12.30;99.90;;;;;;5034508;28;20595;-57
2023/07/26 05:08:16;;;;;;;9.17;6.60;;;12.20;99.90;;;;;;5039723;28;20550;-58
2023/07/26 05:10:41;;;;;;;8.53;6.37;;;12.30;99.90;;;;;;5046107;28;20426;-58
2023/07/26 05:13:07;;;;;;;6.57;5.80;;;12.30;99.90;;;;;;5040490;28;20184;-57
2023/07/26 05:15:33;;;;;;;9.47;6.40;;;12.20;99.90;;;;;;5039296;28;20217;-57
2023/07/26 05:17:58;;;;;;;7.83;6.30;;;12.20;99.90;;;;;;5036299;28;20175;-57
2023/07/26 05:20:24;;;;;;;10.13;6.03;;;12.20;99.90;;;;;;5035945;28;21075;-57
2023/07/26 05:22:49;;;;;;;15.30;6.33;;;12.20;99.90;;;;;;5044293;28;20211;-57
2023/07/26 05:25:15;;;;;;;8.60;6.03;;;12.20;99.90;;;;;;5033073;28;20183;-57
2023/07/26 05:27:41;;;;;;;11.07;6.70;;;12.30;99.90;;;;;;5038278;28;20218;-58
2023/07/26 05:30:07;;;;;;;7.70;5.97;;;12.30;99.90;;;;;;5038957;28;20271;-58
2023/07/26 05:32:33;;;;;;;7.70;6.13;;;12.30;99.90;;;;;;5041687;28;20599;-57
2023/07/26 05:34:58;;;;;;;12.00;6.60;;;12.40;99.90;;;;;;5029589;28;20493;-56
2023/07/26 05:37:25;;;;;;;8.20;5.80;;;12.40;99.90;;;;;;5034906;28;20458;-58
2023/07/26 05:39:52;;;;;;;8.03;5.97;;;12.40;99.90;;;;;;5033977;28;20698;-58
2023/07/26 05:42:18;;;;;;;9.93;5.77;;;12.40;99.90;;;;;;5030670;28;20485;-57
2023/07/26 05:44:44;;;;;;;7.77;5.10;;;12.40;99.90;;;;;;5033621;28;21382;-59
2023/07/26 05:47:10;;;;;;;12.30;6.40;;;12.40;99.90;;;;;;5036937;28;20440;-57
2023/07/26 05:49:36;;;;;;;6.30;5.37;;;12.40;99.90;;;;;;5034909;28;20378;-57
2023/07/26 05:52:03;;;;;;;7.33;6.07;;;12.40;99.90;;;;;;5025548;28;20543;-56
2023/07/26 05:54:28;;;;;;;6.00;5.40;;;12.50;99.90;;;;;;5026526;28;20210;-58
2023/07/26 05:56:54;;;;;;;11.43;5.43;;;12.50;99.90;;;;;;5023708;28;20438;-57
2023/07/26 05:59:20;;;;;;;8.20;5.37;;;12.60;99.90;;;;;;5033112;28;20246;-57
2023/07/26 06:01:46;;;;;;;9.77;5.77;;;12.60;99.90;;;;;;5034222;28;20228;-56
2023/07/26 06:04:11;;;;;;;7.70;5.37;;;12.60;99.90;;;;;;5042455;28;20814;-56
2023/07/26 06:06:37;;;;;;;5.40;4.90;;;12.50;99.90;;;;;;5034457;28;20436;-56
2023/07/26 06:09:05;;;;;;;8.27;5.97;;;12.50;99.90;;;;;;5041052;28;20195;-59
2023/07/26 06:11:30;;;;;;;5.90;4.97;;;12.60;99.90;;;;;;5034953;28;20188;-58
2023/07/26 06:13:56;;;;;;;8.93;6.00;;;12.60;99.90;;;;;;5039956;28;20828;-58
2023/07/26 06:16:21;;;;;;;5.70;4.80;;;12.50;99.90;;;;;;5038223;28;20210;-58
2023/07/26 06:18:48;;;;;;;8.57;5.37;;;12.60;99.90;;;;;;5032943;28;20621;-57
2023/07/26 06:21:15;;;;;;;7.97;5.00;;;12.60;99.90;;;;;;5046711;28;20179;-58
2023/07/26 06:23:40;;;;;;;6.20;5.30;;;12.70;99.90;;;;;;5036065;28;20442;-60
2023/07/26 06:26:06;;;;;;;9.13;4.93;;;12.80;99.90;;;;;;5036211;28;20456;-58
2023/07/26 06:28:31;;;;;;;11.10;5.03;;;12.90;99.90;;;;;;5040483;28;20203;-56
2023/07/26 06:30:57;;;;;;;5.47;4.93;;;13.00;99.90;;;;;;5036037;28;20182;-58
2023/07/26 06:33:23;;;;;;;9.03;5.20;;;13.20;99.90;;;;;;5029519;28;20770;-57
2023/07/26 06:35:48;;;;;;;9.60;4.90;;;13.40;99.90;;;;;;5041081;28;20289;-59
2023/07/26 06:38:14;;;;;;;7.30;4.13;;;13.50;99.90;;;;;;5032215;28;20219;-57
2023/07/26 06:40:39;;;;;;;13.33;4.80;;;13.50;99.90;;;;;;5028549;28;20274;-58
2023/07/26 06:43:06;;;;;;;6.17;4.70;;;13.60;99.90;;;;;;5038905;28;20652;-56
2023/07/26 06:45:32;;;;;;;8.40;4.50;;;13.50;99.90;;;;;;5040821;28;20187;-59
2023/07/26 06:47:58;;;;;;;5.80;4.03;;;13.40;99.90;;;;;;5021491;28;20513;-56
2023/07/26 06:50:24;;;;;;;10.17;4.50;;;13.40;99.90;;;;;;5024819;28;20513;-58
2023/07/26 06:52:49;;;;;;;6.50;5.17;;;13.40;99.90;;;;;;5037084;28;20269;-58
2023/07/26 06:55:15;;;;;;;10.37;4.50;;;13.30;99.90;;;;;;5028894;28;20809;-58
2023/07/26 06:57:41;;;;;;;4.77;4.27;;;13.40;99.90;;;;;;5031607;28;20187;-58
2023/07/26 07:00:12;;;;;;;5.53;4.80;;;13.40;99.90;;;;;;5028788;28;20238;-58
2023/07/26 07:02:40;;;;;;;10.03;4.07;;;13.40;99.90;;;;;;5028928;28;20195;-58
2023/07/26 07:05:07;;;;;;;4.80;4.33;;;13.40;99.90;;;;;;5032016;28;20422;-59
2023/07/26 07:07:32;;;;;;;9.30;4.70;;;13.40;99.90;;;;;;5029992;28;20438;-58
2023/07/26 07:09:58;;;;;;;12.00;4.73;;;13.40;99.90;;;;;;5028598;28;20524;-58
2023/07/26 07:12:24;;;;;;;6.63;4.33;;;13.40;99.90;;;;;;5037603;28;20194;-58
2023/07/26 07:14:49;;;;;;;6.70;4.20;;;13.40;99.90;;;;;;5022580;28;20210;-59
2023/07/26 07:17:15;;;;;;;5.27;4.07;;;13.40;99.90;;;;;;5023299;28;20175;-59
2023/07/26 07:19:40;;;;;;;5.43;4.00;;;13.40;99.90;;;;;;5028009;28;20195;-58
2023/07/26 07:22:06;;;;;;;8.60;3.80;;;13.40;99.90;;;;;;5034505;28;20170;-58
2023/07/26 07:24:34;;;;;;;4.10;3.70;;;13.30;99.90;;;;;;5035563;28;20254;-59
2023/07/26 07:26:59;;;;;;;4.37;3.97;;;13.30;99.90;;;;;;5027342;28;20237;-58
2023/07/26 07:29:25;;;;;;;4.70;4.23;;;13.20;99.90;;;;;;5036020;28;20457;-59
2023/07/26 07:31:50;;;;;;;4.93;3.67;;;13.20;99.90;;;;;;5034516;28;20731;-57
2023/07/26 07:34:16;;;;;;;6.17;3.73;;;13.30;99.90;;;;;;5036554;28;20179;-58
2023/07/26 07:36:42;;;;;;;5.40;4.17;;;13.20;99.90;;;;;;5026962;28;20175;-57
2023/07/26 07:39:09;;;;;;;4.70;4.23;;;13.20;99.90;;;;;;5039329;28;20688;-57
2023/07/26 07:41:36;;;;;;;7.70;4.00;;;13.20;99.90;;;;;;5033125;28;20204;-57
2023/07/26 07:44:02;;;;;;;10.73;4.43;;;13.20;99.90;;;;;;5027854;28;20434;-57
2023/07/26 07:46:28;;;;;;;8.03;4.63;;;13.20;99.90;;;;;;5035996;28;20528;-57
2023/07/26 07:48:55;;;;;;;11.57;4.50;;;13.10;99.90;;;;;;5040998;28;20548;-58
2023/07/26 07:51:21;;;;;;;5.13;4.53;;;13.10;99.90;;;;;;5033738;28;20570;-57
2023/07/26 07:53:48;;;;;;;4.53;4.10;;;13.10;99.90;;;;;;5042095;28;20820;-57
2023/07/26 07:56:14;;;;;;;9.03;4.70;;;13.10;99.90;;;;;;5034610;28;20258;-57
2023/07/26 07:58:39;;;;;;;10.63;4.67;;;13.10;99.90;;;;;;5036658;28;20453;-58
2023/07/26 08:01:05;;;;;;;5.90;4.80;;;13.10;99.90;;;;;;5037861;28;20728;-57
2023/07/26 08:03:31;;;;;;;5.87;4.40;;;13.10;99.90;;;;;;5037540;28;20180;-56
2023/07/26 08:05:57;;;;;;;4.70;4.30;;;13.20;99.90;;;;;;5035763;28;20184;-59
2023/07/26 08:08:23;;;;;;;12.47;5.60;;;13.20;99.90;;;;;;5035984;28;20457;-57
2023/07/26 08:10:49;;;;;;;5.40;4.50;;;13.20;99.90;;;;;;5035843;28;20179;-58
2023/07/26 08:13:14;;;;;;;5.13;3.93;;;13.20;99.90;;;;;;5038034;28;20288;-58
2023/07/26 08:15:40;;;;;;;5.10;4.13;;;13.20;99.90;;;;;;5040911;28;20461;-58
2023/07/26 08:18:06;;;;;;;7.67;3.80;;;13.20;99.90;;;;;;5038349;28;20270;-58
2023/07/26 08:20:35;;;;;;;10.13;5.90;;;13.20;99.90;;;;;;5040224;28;20529;-57
2023/07/26 08:23:02;;;;;;;5.40;4.10;;;13.20;99.90;;;;;;5039898;28;20663;-57
2023/07/26 08:25:27;;;;;;;5.63;3.30;;;13.20;99.90;;;;;;5027869;28;20706;-57
2023/07/26 08:27:53;;;;;;;5.30;4.07;;;13.10;99.90;;;;;;5036895;28;20882;-58
2023/07/26 08:30:19;;;;;;;5.57;3.90;;;13.10;99.90;;;;;;5040144;28;20179;-58
2023/07/26 08:32:44;;;;;;;7.20;4.00;;;13.10;99.90;;;;;;5043259;28;20195;-59
2023/07/26 08:35:10;;;;;;;4.07;3.67;;;13.10;99.90;;;;;;5043094;28;20242;-59
2023/07/26 08:37:35;;;;;;;5.13;4.10;;;13.10;99.90;;;;;;5039714;28;20175;-58
2023/07/26 08:40:01;;;;;;;5.10;4.30;;;13.10;99.90;;;;;;5038526;28;20260;-57
2023/07/26 08:42:27;;;;;;;8.43;3.83;;;13.10;99.90;;;;;;5041936;28;20179;-58
2023/07/26 08:44:53;;;;;;;5.70;3.80;;;13.10;99.90;;;;;;5037304;28;20191;-58
2023/07/26 08:47:22;;;;;;;4.87;3.70;;;13.20;99.90;;;;;;5035381;28;20184;-57
2023/07/26 08:49:49;;;;;;;6.43;3.60;;;13.20;99.90;;;;;;5032487;28;20911;-58
2023/07/26 08:52:16;;;;;;;4.63;3.57;;;13.20;99.90;;;;;;5035026;28;20439;-58
2023/07/26 08:54:44;;;;;;;4.60;3.70;;;13.30;99.90;;;;;;5045318;28;20832;-57
2023/07/26 08:57:09;;;;;;;4.23;3.60;;;13.30;99.90;;;;;;5031728;28;20441;-59
2023/07/26 08:59:35;;;;;;;5.70;4.00;;;13.40;99.90;;;;;;5041692;28;20954;-58
2023/07/26 09:02:03;;;;;;;7.30;3.90;;;13.40;99.90;;;;;;5038026;28;20183;-58
2023/07/26 09:04:33;;;;;;;4.53;3.90;;;13.50;99.90;;;;;;5026410;28;20196;-59
2023/07/26 09:07:06;;;;;;;6.17;3.60;;;13.60;99.90;;;;;;5035208;28;20930;-59
2023/07/26 09:09:33;;;;;;;3.80;3.10;;;13.80;99.90;;;;;;5030846;28;20456;-59
2023/07/26 09:12:00;;;;;;;2.77;2.57;;;14.10;99.90;;;;;;5041253;28;20445;-60
2023/07/26 09:14:31;;;;;;;3.43;2.43;;;14.40;99.90;;;;;;5039119;28;20473;-59
2023/07/26 09:16:57;;;;;;;3.73;2.33;;;14.60;98.40;;;;;;5033606;28;20450;-58
2023/07/26 09:19:30;;;;;;;3.27;2.60;;;14.80;97.10;;;;;;5034953;28;20988;-60
2023/07/26 09:22:01;;;;;;;3.30;2.77;;;14.90;96.90;;;;;;5028265;28;20485;-60
2023/07/26 09:24:39;;;;;;;4.87;2.60;;;15.00;98.80;;;;;;5037977;28;20445;-59
2023/07/26 09:27:10;;;;;;;4.60;2.77;;;15.10;97.40;;;;;;5039678;28;20450;-59
2023/07/26 09:29:39;;;;;;;3.10;2.60;;;15.20;91.30;;;;;;5032188;28;20457;-59
2023/07/26 09:32:06;;;;;;;2.67;2.47;;;15.20;87.30;;;;;;5033578;28;20443;-60
2023/07/26 09:34:32;;;;;;;3.53;3.17;;;15.20;90.00;;;;;;5032042;28;20534;-57
2023/07/26 09:36:58;;;;;;;2.40;2.20;;;15.30;94.60;;;;;;5036341;28;20825;-57
2023/07/26 09:39:26;;;;;;;4.73;2.73;;;15.50;92.00;;;;;;5028724;28;20461;-57
2023/07/26 09:42:08;;;;;;;2.73;2.03;;;15.50;85.80;;;;;;5031237;28;20445;-55
2023/07/26 09:44:34;;;;;;;3.83;2.40;;;15.40;83.20;;;;;;5032262;28;20433;-55
2023/07/26 09:47:00;;;;;;;4.30;2.30;;;15.30;81.30;;;;;;5036108;28;20983;-53
2023/07/26 09:49:27;;;;;;;3.60;2.30;;;15.20;80.40;;;;;;5032667;28;20905;-53
2023/07/26 09:51:59;;;;;;;2.03;1.83;;;15.20;84.00;;;;;;5029251;28;20530;-57
2023/07/26 09:54:30;;;;;;;2.80;2.00;;;15.30;83.50;;;;;;5029598;28;20502;-57
2023/07/26 09:56:57;;;;;;;2.40;1.83;;;15.60;88.30;;;;;;5032859;28;20455;-56
2023/07/26 09:59:29;;;;;;;2.83;2.07;;;15.90;78.60;;;;;;5027715;28;21169;-59
2023/07/26 10:01:59;;;;;;;5.17;2.30;;;16.20;77.30;;;;;;5019682;28;20449;-58
2023/07/26 10:04:45;;;;;;;3.67;2.07;;;16.60;72.00;;;;;;5031539;28;20434;-58
2023/07/26 10:07:12;;;;;;;2.00;1.90;;;16.80;64.50;;;;;;5027711;28;21020;-56
2023/07/26 10:09:43;;;;;;;2.43;1.80;;;17.00;61.90;;;;;;5030937;28;20552;-56
2023/07/26 10:12:10;;;;;;;4.33;1.77;;;17.00;61.50;;;;;;5034148;28;20422;-58
2023/07/26 10:14:36;;;;;;;2.10;1.90;;;16.80;62.30;;;;;;5037530;28;20500;-58
2023/07/26 10:17:04;;;;;;;2.80;2.10;;;16.70;63.30;;;;;;5037299;28;20891;-58
2023/07/26 10:19:32;;;;;;;2.47;2.10;;;16.70;64.30;;;;;;5031591;28;20885;-56
2023/07/26 10:21:58;;;;;;;2.17;2.00;;;16.70;65.00;;;;;;5030164;28;20429;-57
2023/07/26 10:24:24;;;;;;;2.70;2.23;;;16.70;63.60;;;;;;5026164;28;20529;-57
2023/07/26 10:26:52;;;;;;;4.00;2.17;;;16.80;65.00;;;;;;5032092;28;20636;-59
2023/07/26 10:29:19;;;;;;;2.00;1.80;;;17.00;66.70;;;;;;5033185;28;20448;-58
2023/07/26 10:31:46;;;;;;;2.93;2.20;;;17.20;66.30;;;;;;5033750;28;20430;-59
2023/07/26 10:34:19;;;;;;;2.37;2.17;;;17.50;64.00;;;;;;5032870;28;20425;-58
2023/07/26 10:36:45;;;;;;;1.80;1.70;;;17.60;64.30;;;;;;5033145;28;21072;-57
2023/07/26 10:39:12;;;;;;;3.70;2.40;;;17.80;62.00;;;;;;5033858;28;20561;-57
2023/07/26 10:41:47;;;;;;;2.30;2.10;;;17.90;59.50;;;;;;5037321;28;20179;-54
2023/07/26 10:44:13;;;;;;;2.10;1.90;;;17.90;55.90;;;;;;5029561;28;20433;-56
2023/07/26 10:46:51;;;;;;;4.13;2.03;;;17.80;57.80;;;;;;5033186;28;20438;-58
2023/07/26 10:49:20;;;;;;;2.53;2.20;;;17.80;59.30;;;;;;5039909;28;20654;-57
2023/07/26 10:51:51;;;;;;;2.50;1.93;;;17.70;57.00;;;;;;5036363;28;20525;-58
2023/07/26 10:54:41;;;;;;;2.87;2.13;;;17.50;55.70;;;;;;5038042;28;20432;-58
2023/07/26 10:57:16;;;;;;;4.40;2.30;;;17.20;54.10;;;;;;5035202;28;20467;-58
2023/07/26 10:59:59;;;;;;;3.60;2.60;;;16.90;54.40;;;;;;5031958;28;20844;-58
2023/07/26 11:02:43;;;;;;;2.33;1.97;;;16.60;57.50;;;;;;5037808;28;20429;-59
2023/07/26 11:05:19;;;;;;;2.43;2.10;;;16.20;60.10;;;;;;5033222;28;20449;-59
2023/07/26 11:07:58;;;;;;;2.50;1.83;;;15.80;63.50;;;;;;5035628;28;20425;-59
2023/07/26 11:10:36;;;;;;;2.73;1.97;;;15.60;65.90;;;;;;5032853;28;20430;-59
2023/07/26 11:13:14;;;;;;;3.20;2.20;;;15.30;70.50;;;;;;5030414;28;20461;-58
2023/07/26 11:15:48;;;;;;;2.67;2.33;;;15.20;78.20;;;;;;5023621;28;20545;-59
2023/07/26 11:18:15;;;;;;;3.93;2.80;;;15.20;86.10;;;;;;5027610;28;22389;-56
2023/07/26 11:20:46;;;;;;;3.23;2.80;;;15.30;89.20;;;;;;5031558;28;22168;-58
2023/07/26 11:23:17;;;;;;;4.77;2.50;;;15.40;93.20;;;;;;5026826;28;21013;-57
2023/07/26 11:25:44;;;;;;;5.90;2.77;;;15.50;91.60;;;;;;5029625;28;20421;-58
2023/07/26 11:28:10;;;;;;;3.47;2.30;;;15.60;84.70;;;;;;5030122;28;20454;-58
2023/07/26 11:30:39;;;;;;;4.70;2.53;;;15.50;85.30;;;;;;5025049;28;20526;-58
2023/07/26 11:33:05;;;;;;;2.83;2.60;;;15.50;78.40;;;;;;5021524;28;20186;-58
2023/07/26 11:35:42;;;;;;;3.73;2.30;;;15.60;87.30;;;;;;5033118;28;20453;-59
2023/07/26 11:38:14;;;;;;;4.40;3.03;;;15.70;86.50;;;;;;5031330;28;20180;-57
2023/07/26 11:40:41;;;;;;;8.93;2.40;;;15.90;74.80;;;;;;5036624;28;20512;-57
2023/07/26 11:43:07;;;;;;;2.40;2.10;;;16.10;71.90;;;;;;5025683;28;20422;-58
2023/07/26 11:45:33;;;;;;;2.93;2.40;;;16.40;71.00;;;;;;5016860;28;20430;-56
2023/07/26 11:47:59;;;;;;;2.40;2.20;;;16.60;67.00;;;;;;5029731;28;20433;-58
2023/07/26 11:50:26;;;;;;;3.50;2.53;;;16.80;64.60;;;;;;5025391;28;20441;-58
2023/07/26 11:53:09;;;;;;;3.37;2.60;;;17.00;61.20;;;;;;5026568;28;20195;-55
2023/07/26 11:55:38;;;;;;;2.77;2.20;;;16.90;58.90;;;;;;5034587;28;20465;-58
2023/07/26 11:58:06;;;;;;;4.47;2.53;;;16.80;58.90;;;;;;5033563;28;20430;-57
2023/07/26 12:00:33;;;;;;;3.63;2.57;;;16.70;59.00;;;;;;5031336;28;20465;-57
2023/07/26 12:03:05;;;;;;;4.40;2.00;;;16.60;61.50;;;;;;5030531;28;20417;-56
2023/07/26 12:05:33;;;;;;;2.60;2.20;;;16.60;62.40;;;;;;5032337;28;20503;-58
2023/07/26 12:08:06;;;;;;;3.23;2.60;;;16.50;64.50;;;;;;5037194;28;21011;-59
2023/07/26 12:10:31;;;;;;;3.60;2.77;;;16.50;67.60;;;;;;5030094;28;20434;-55
2023/07/26 12:12:58;;;;;;;2.60;2.30;;;16.50;69.70;;;;;;5034046;28;20426;-56
2023/07/26 12:15:24;;;;;;;3.00;2.17;;;16.30;73.00;;;;;;5037342;28;20264;-57
2023/07/26 12:18:01;;;;;;;3.13;2.83;;;16.20;80.10;;;;;;5034046;28;20428;-57
2023/07/26 12:20:29;;;;;;;2.73;2.33;;;16.10;76.10;;;;;;5031729;28;20512;-57
2023/07/26 12:22:58;;;;;;;4.30;2.50;;;16.00;78.10;;;;;;5031945;28;20969;-57
2023/07/26 12:25:35;;;;;;;3.13;1.93;;;16.00;86.20;;;;;;5028621;28;20571;-56
2023/07/26 12:28:04;;;;;;;4.50;2.50;;;16.30;85.60;;;;;;5031985;28;20438;-56
2023/07/26 12:30:29;;;;;;;2.80;2.40;;;16.50;77.00;;;;;;5036553;28;20506;-57
2023/07/26 12:33:14;;;;;;;2.67;2.07;;;16.80;77.10;;;;;;5034188;28;20946;-57
2023/07/26 12:35:46;;;;;;;2.10;1.90;;;16.90;68.30;;;;;;5036544;28;20272;-56
2023/07/26 12:38:21;;;;;;;4.70;2.13;;;16.90;66.70;;;;;;5027013;28;20437;-55
2023/07/26 12:40:47;;;;;;;3.63;2.00;;;16.80;62.40;;;;;;5022761;28;20532;-57
2023/07/26 12:43:39;;;;;;;3.73;2.43;;;16.70;65.20;;;;;;5023377;28;20427;-57
2023/07/26 12:46:05;;;;;;;2.87;2.17;;;16.80;67.40;;;;;;5018014;28;21060;-54